sensor_id;sensor_type;location;lat;lon;timestamp;pressure;altitude;pressure_sealevel;temperature;humidity
63903;BME280;50072;50.678;13.938;2023-10-08T00:00:48;99616.41;;;18.50;74.88
63903;BME280;50072;50.678;13.938;2023-10-08T00:03:45;99617.50;;;18.47;75.39
63903;BME280;50072;50.678;13.938;2023-10-08T00:06:20;99603.16;;;18.45;75.41
63903;BME280;50072;50.678;13.938;2023-10-08T00:08:47;99608.47;;;18.46;75.35
63903;BME280;50072;50.678;13.938;2023-10-08T00:11:14;99609.38;;;18.47;75.29
63903;BME280;50072;50.678;13.938;2023-10-08T00:13:42;99602.19;;;18.46;75.55
63903;BME280;50072;50.678;13.938;2023-10-08T00:16:09;99620.31;;;18.45;75.86
63903;BME280;50072;50.678;13.938;2023-10-08T00:18:36;99613.97;;;18.45;75.66
63903;BME280;50072;50.678;13.938;2023-10-08T00:21:06;99604.03;;;18.45;75.74
63903;BME280;50072;50.678;13.938;2023-10-08T00:23:38;99615.03;;;18.42;76.16
63903;BME280;50072;50.678;13.938;2023-10-08T00:26:08;99603.59;;;18.37;76.47
63903;BME280;50072;50.678;13.938;2023-10-08T00:28:34;99612.50;;;18.39;76.64
63903;BME280;50072;50.678;13.938;2023-10-08T00:31:03;99601.84;;;18.36;76.89
63903;BME280;50072;50.678;13.938;2023-10-08T00:33:39;99600.09;;;18.35;76.94
63903;BME280;50072;50.678;13.938;2023-10-08T00:36:05;99604.66;;;18.35;77.10
63903;BME280;50072;50.678;13.938;2023-10-08T00:38:43;99601.22;;;18.31;77.17
63903;BME280;50072;50.678;13.938;2023-10-08T00:41:15;99598.38;;;18.34;76.92
63903;BME280;50072;50.678;13.938;2023-10-08T00:43:41;99585.97;;;18.30;77.42
63903;BME280;50072;50.678;13.938;2023-10-08T00:46:07;99590.16;;;18.36;77.65
63903;BME280;50072;50.678;13.938;2023-10-08T00:48:50;99597.38;;;18.35;77.95
63903;BME280;50072;50.678;13.938;2023-10-08T00:51:21;99576.09;;;18.29;77.73
63903;BME280;50072;50.678;13.938;2023-10-08T00:56:33;99577.13;;;18.26;78.57
63903;BME280;50072;50.678;13.938;2023-10-08T00:59:19;99576.16;;;18.27;79.00
63903;BME280;50072;50.678;13.938;2023-10-08T01:01:48;99575.28;;;18.27;78.63
63903;BME280;50072;50.678;13.938;2023-10-08T01:04:18;99578.41;;;18.35;78.45
63903;BME280;50072;50.678;13.938;2023-10-08T01:06:50;99570.56;;;18.31;78.82
63903;BME280;50072;50.678;13.938;2023-10-08T01:09:19;99582.28;;;18.31;79.28
63903;BME280;50072;50.678;13.938;2023-10-08T01:12:14;99580.19;;;18.36;79.35
63903;BME280;50072;50.678;13.938;2023-10-08T01:14:44;99573.19;;;18.32;79.52
63903;BME280;50072;50.678;13.938;2023-10-08T01:17:12;99569.00;;;18.26;80.13
63903;BME280;50072;50.678;13.938;2023-10-08T01:19:47;99566.00;;;18.31;79.92
63903;BME280;50072;50.678;13.938;2023-10-08T01:22:17;99580.19;;;18.36;80.15
63903;BME280;50072;50.678;13.938;2023-10-08T01:24:45;99580.19;;;18.36;80.20
63903;BME280;50072;50.678;13.938;2023-10-08T01:27:15;99575.72;;;18.35;80.43
63903;BME280;50072;50.678;13.938;2023-10-08T01:29:46;99581.22;;;18.34;80.81
63903;BME280;50072;50.678;13.938;2023-10-08T01:32:20;99583.94;;;18.34;81.16
63903;BME280;50072;50.678;13.938;2023-10-08T01:34:49;99599.22;;;18.35;81.26
63903;BME280;50072;50.678;13.938;2023-10-08T01:37:16;99585.78;;;18.33;81.51
63903;BME280;50072;50.678;13.938;2023-10-08T01:39:49;99579.47;;;18.33;81.42
63903;BME280;50072;50.678;13.938;2023-10-08T01:42:18;99584.97;;;18.31;82.02
63903;BME280;50072;50.678;13.938;2023-10-08T01:44:45;99569.09;;;18.25;82.50
63903;BME280;50072;50.678;13.938;2023-10-08T01:47:13;99574.13;;;18.31;82.05
63903;BME280;50072;50.678;13.938;2023-10-08T01:49:40;99562.91;;;18.23;82.59
63903;BME280;50072;50.678;13.938;2023-10-08T01:52:08;99570.94;;;18.24;82.84
63903;BME280;50072;50.678;13.938;2023-10-08T01:54:39;99563.06;;;18.20;83.21
63903;BME280;50072;50.678;13.938;2023-10-08T01:57:05;99581.78;;;18.24;83.51
63903;BME280;50072;50.678;13.938;2023-10-08T01:59:31;99573.13;;;18.18;83.57
63903;BME280;50072;50.678;13.938;2023-10-08T02:01:58;99589.19;;;18.21;83.31
63903;BME280;50072;50.678;13.938;2023-10-08T02:04:24;99566.38;;;18.25;83.22
63903;BME280;50072;50.678;13.938;2023-10-08T02:06:50;99587.19;;;18.24;83.73
63903;BME280;50072;50.678;13.938;2023-10-08T02:09:16;99579.16;;;18.23;85.21
63903;BME280;50072;50.678;13.938;2023-10-08T02:11:48;99575.84;;;18.18;91.89
63903;BME280;50072;50.678;13.938;2023-10-08T02:14:20;99570.53;;;18.00;92.21
63903;BME280;50072;50.678;13.938;2023-10-08T02:16:47;99570.41;;;17.86;91.58
63903;BME280;50072;50.678;13.938;2023-10-08T02:19:13;99570.41;;;17.86;91.83
63903;BME280;50072;50.678;13.938;2023-10-08T02:21:44;99576.88;;;17.83;95.06
63903;BME280;50072;50.678;13.938;2023-10-08T02:24:13;99575.28;;;17.79;93.06
63903;BME280;50072;50.678;13.938;2023-10-08T02:26:39;99578.69;;;17.83;91.97
63903;BME280;50072;50.678;13.938;2023-10-08T02:29:07;99557.81;;;17.85;91.62
63903;BME280;50072;50.678;13.938;2023-10-08T02:31:37;99566.53;;;17.90;91.59
63903;BME280;50072;50.678;13.938;2023-10-08T02:34:08;99553.94;;;17.90;90.53
63903;BME280;50072;50.678;13.938;2023-10-08T02:36:37;99543.16;;;17.89;91.77
63903;BME280;50072;50.678;13.938;2023-10-08T02:39:04;99552.00;;;17.92;90.82
63903;BME280;50072;50.678;13.938;2023-10-08T02:41:32;99559.25;;;17.92;90.57
63903;BME280;50072;50.678;13.938;2023-10-08T02:43:58;99566.25;;;17.96;90.82
63903;BME280;50072;50.678;13.938;2023-10-08T02:46:26;99578.84;;;17.97;90.42
63903;BME280;50072;50.678;13.938;2023-10-08T02:48:56;99580.75;;;17.95;91.00
63903;BME280;50072;50.678;13.938;2023-10-08T02:51:21;99575.59;;;17.90;91.76
63903;BME280;50072;50.678;13.938;2023-10-08T02:53:47;99590.72;;;17.94;91.78
63903;BME280;50072;50.678;13.938;2023-10-08T02:56:15;99591.56;;;17.95;91.35
63903;BME280;50072;50.678;13.938;2023-10-08T02:58:42;99591.75;;;17.92;91.83
63903;BME280;50072;50.678;13.938;2023-10-08T03:01:13;99596.22;;;17.93;92.19
63903;BME280;50072;50.678;13.938;2023-10-08T03:03:41;99601.34;;;17.98;92.96
63903;BME280;50072;50.678;13.938;2023-10-08T03:06:12;99600.97;;;17.88;99.04
63903;BME280;50072;50.678;13.938;2023-10-08T03:08:40;99608.38;;;17.68;100.00
63903;BME280;50072;50.678;13.938;2023-10-08T03:11:10;99612.81;;;17.53;100.00
63903;BME280;50072;50.678;13.938;2023-10-08T03:13:45;99626.22;;;17.39;100.00
63903;BME280;50072;50.678;13.938;2023-10-08T03:16:17;99643.59;;;17.17;100.00
63903;BME280;50072;50.678;13.938;2023-10-08T03:18:47;99659.41;;;16.90;100.00
63903;BME280;50072;50.678;13.938;2023-10-08T03:21:16;99689.13;;;16.53;100.00
63903;BME280;50072;50.678;13.938;2023-10-08T03:24:02;99708.66;;;16.03;100.00
63903;BME280;50072;50.678;13.938;2023-10-08T03:26:37;99721.78;;;15.50;100.00
63903;BME280;50072;50.678;13.938;2023-10-08T03:29:05;99743.31;;;15.31;100.00
63903;BME280;50072;50.678;13.938;2023-10-08T03:31:37;99743.81;;;14.98;100.00
63903;BME280;50072;50.678;13.938;2023-10-08T03:34:12;99725.22;;;14.70;100.00
63903;BME280;50072;50.678;13.938;2023-10-08T03:36:39;99766.41;;;14.50;100.00
63903;BME280;50072;50.678;13.938;2023-10-08T03:39:16;99746.28;;;14.37;100.00
63903;BME280;50072;50.678;13.938;2023-10-08T03:41:46;99775.09;;;14.11;100.00
63903;BME280;50072;50.678;13.938;2023-10-08T03:44:24;99773.78;;;13.97;100.00
63903;BME280;50072;50.678;13.938;2023-10-08T03:46:50;99763.38;;;13.88;100.00
63903;BME280;50072;50.678;13.938;2023-10-08T03:49:18;99760.88;;;13.58;100.00
63903;BME280;50072;50.678;13.938;2023-10-08T03:51:46;99777.72;;;13.63;100.00
63903;BME280;50072;50.678;13.938;2023-10-08T03:54:14;99788.63;;;13.59;100.00
63903;BME280;50072;50.678;13.938;2023-10-08T03:56:40;99783.44;;;13.54;100.00
63903;BME280;50072;50.678;13.938;2023-10-08T03:59:14;99813.00;;;13.54;100.00
63903;BME280;50072;50.678;13.938;2023-10-08T04:01:53;99824.06;;;13.45;100.00
63903;BME280;50072;50.678;13.938;2023-10-08T04:04:21;99805.59;;;13.36;100.00
63903;BME280;50072;50.678;13.938;2023-10-08T04:06:55;99848.44;;;13.40;100.00
63903;BME280;50072;50.678;13.938;2023-10-08T04:09:42;99839.50;;;13.40;100.00
63903;BME280;50072;50.678;13.938;2023-10-08T04:12:08;99829.94;;;13.29;100.00
63903;BME280;50072;50.678;13.938;2023-10-08T04:14:36;99851.34;;;13.33;100.00
63903;BME280;50072;50.678;13.938;2023-10-08T04:17:02;99828.38;;;13.22;100.00
63903;BME280;50072;50.678;13.938;2023-10-08T04:19:29;99845.25;;;13.27;100.00
63903;BME280;50072;50.678;13.938;2023-10-08T04:22:10;99850.00;;;13.19;100.00
63903;BME280;50072;50.678;13.938;2023-10-08T04:24:50;99878.88;;;13.12;100.00
63903;BME280;50072;50.678;13.938;2023-10-08T04:27:15;99880.13;;;13.01;100.00
63903;BME280;50072;50.678;13.938;2023-10-08T04:29:49;99889.44;;;12.90;100.00
63903;BME280;50072;50.678;13.938;2023-10-08T04:32:15;99873.63;;;12.80;100.00
63903;BME280;50072;50.678;13.938;2023-10-08T04:34:49;99887.19;;;12.75;100.00
63903;BME280;50072;50.678;13.938;2023-10-08T04:37:19;99875.81;;;12.67;100.00
63903;BME280;50072;50.678;13.938;2023-10-08T04:39:51;99869.66;;;12.63;100.00
63903;BME280;50072;50.678;13.938;2023-10-08T04:42:24;99871.84;;;12.50;100.00
63903;BME280;50072;50.678;13.938;2023-10-08T04:44:51;99884.50;;;12.45;100.00
63903;BME280;50072;50.678;13.938;2023-10-08T04:47:18;99903.53;;;12.37;100.00
63903;BME280;50072;50.678;13.938;2023-10-08T04:50:00;99903.19;;;12.17;100.00
63903;BME280;50072;50.678;13.938;2023-10-08T04:52:29;99927.13;;;12.26;100.00
63903;BME280;50072;50.678;13.938;2023-10-08T04:54:55;99929.13;;;12.18;100.00
63903;BME280;50072;50.678;13.938;2023-10-08T04:57:22;99916.66;;;12.15;100.00
63903;BME280;50072;50.678;13.938;2023-10-08T04:59:49;99909.63;;;12.11;100.00
63903;BME280;50072;50.678;13.938;2023-10-08T05:02:22;99912.53;;;12.03;100.00
63903;BME280;50072;50.678;13.938;2023-10-08T05:05:14;99916.44;;;11.90;100.00
63903;BME280;50072;50.678;13.938;2023-10-08T05:07:43;99921.97;;;11.82;100.00
63903;BME280;50072;50.678;13.938;2023-10-08T05:10:15;99939.16;;;11.75;100.00
63903;BME280;50072;50.678;13.938;2023-10-08T05:12:50;99951.25;;;11.55;100.00
63903;BME280;50072;50.678;13.938;2023-10-08T05:15:31;99968.94;;;11.63;100.00
63903;BME280;50072;50.678;13.938;2023-10-08T05:18:08;99994.13;;;11.55;100.00
63903;BME280;50072;50.678;13.938;2023-10-08T05:20:49;99999.91;;;11.38;100.00
63903;BME280;50072;50.678;13.938;2023-10-08T05:23:17;100023.78;;;11.49;100.00
63903;BME280;50072;50.678;13.938;2023-10-08T05:25:50;100031.91;;;11.46;100.00
63903;BME280;50072;50.678;13.938;2023-10-08T05:28:26;100035.63;;;11.39;100.00
63903;BME280;50072;50.678;13.938;2023-10-08T05:30:53;100047.38;;;11.33;100.00
63903;BME280;50072;50.678;13.938;2023-10-08T05:33:38;100048.38;;;11.28;100.00
63903;BME280;50072;50.678;13.938;2023-10-08T05:36:23;100051.91;;;11.30;100.00
63903;BME280;50072;50.678;13.938;2023-10-08T05:39:18;100059.19;;;11.25;100.00
63903;BME280;50072;50.678;13.938;2023-10-08T05:41:51;100057.41;;;11.23;100.00
63903;BME280;50072;50.678;13.938;2023-10-08T05:44:18;100060.22;;;11.16;100.00
63903;BME280;50072;50.678;13.938;2023-10-08T05:46:44;100051.31;;;11.15;100.00
63903;BME280;50072;50.678;13.938;2023-10-08T05:49:17;100063.13;;;11.07;100.00
63903;BME280;50072;50.678;13.938;2023-10-08T05:52:04;100073.06;;;11.00;100.00
63903;BME280;50072;50.678;13.938;2023-10-08T05:54:31;100070.44;;;10.97;100.00
63903;BME280;50072;50.678;13.938;2023-10-08T05:57:02;100067.81;;;10.95;100.00
63903;BME280;50072;50.678;13.938;2023-10-08T05:59:49;100055.44;;;10.90;100.00
63903;BME280;50072;50.678;13.938;2023-10-08T06:02:28;100070.66;;;10.87;100.00
63903;BME280;50072;50.678;13.938;2023-10-08T06:05:14;100069.75;;;10.87;100.00
63903;BME280;50072;50.678;13.938;2023-10-08T06:07:52;100079.59;;;10.86;100.00
63903;BME280;50072;50.678;13.938;2023-10-08T06:10:28;100072.44;;;10.87;100.00
63903;BME280;50072;50.678;13.938;2023-10-08T06:13:01;100084.81;;;10.93;100.00
63903;BME280;50072;50.678;13.938;2023-10-08T06:15:50;100075.13;;;10.85;100.00
63903;BME280;50072;50.678;13.938;2023-10-08T06:18:18;100101.06;;;10.83;100.00
63903;BME280;50072;50.678;13.938;2023-10-08T06:20:47;100107.31;;;10.84;100.00
63903;BME280;50072;50.678;13.938;2023-10-08T06:23:16;100102.78;;;10.87;100.00
63903;BME280;50072;50.678;13.938;2023-10-08T06:25:46;100116.28;;;10.81;100.00
63903;BME280;50072;50.678;13.938;2023-10-08T06:28:22;100135.97;;;10.77;100.00
63903;BME280;50072;50.678;13.938;2023-10-08T06:30:55;100150.09;;;10.87;100.00
63903;BME280;50072;50.678;13.938;2023-10-08T06:33:25;100137.56;;;10.89;100.00
63903;BME280;50072;50.678;13.938;2023-10-08T06:35:56;100155.38;;;10.90;100.00
63903;BME280;50072;50.678;13.938;2023-10-08T06:38:32;100159.88;;;10.88;100.00
63903;BME280;50072;50.678;13.938;2023-10-08T06:41:03;100166.09;;;10.90;100.00
63903;BME280;50072;50.678;13.938;2023-10-08T06:43:36;100176.78;;;10.93;100.00
63903;BME280;50072;50.678;13.938;2023-10-08T06:46:05;100180.38;;;10.91;100.00
63903;BME280;50072;50.678;13.938;2023-10-08T06:48:34;100170.75;;;10.80;100.00
63903;BME280;50072;50.678;13.938;2023-10-08T06:51:00;100188.50;;;10.84;100.00
63903;BME280;50072;50.678;13.938;2023-10-08T06:53:33;100200.25;;;10.76;100.00
63903;BME280;50072;50.678;13.938;2023-10-08T06:56:00;100211.69;;;10.85;100.00
63903;BME280;50072;50.678;13.938;2023-10-08T06:58:32;100200.09;;;10.86;100.00
63903;BME280;50072;50.678;13.938;2023-10-08T07:00:58;100204.47;;;10.91;100.00
63903;BME280;50072;50.678;13.938;2023-10-08T07:03:33;100223.25;;;10.89;100.00
63903;BME280;50072;50.678;13.938;2023-10-08T07:06:04;100221.53;;;10.85;100.00
63903;BME280;50072;50.678;13.938;2023-10-08T07:08:43;100227.91;;;10.78;100.00
63903;BME280;50072;50.678;13.938;2023-10-08T07:11:13;100245.72;;;10.79;100.00
63903;BME280;50072;50.678;13.938;2023-10-08T07:13:39;100253.78;;;10.77;100.00
63903;BME280;50072;50.678;13.938;2023-10-08T07:16:07;100253.94;;;10.68;100.00
63903;BME280;50072;50.678;13.938;2023-10-08T07:18:39;100238.72;;;10.70;100.00
63903;BME280;50072;50.678;13.938;2023-10-08T07:21:07;100255.63;;;10.75;100.00
63903;BME280;50072;50.678;13.938;2023-10-08T07:23:39;100260.19;;;10.67;100.00
63903;BME280;50072;50.678;13.938;2023-10-08T07:26:26;100261.94;;;10.71;100.00
63903;BME280;50072;50.678;13.938;2023-10-08T07:29:06;100270.81;;;10.75;100.00
63903;BME280;50072;50.678;13.938;2023-10-08T07:31:37;100277.84;;;10.80;100.00
63903;BME280;50072;50.678;13.938;2023-10-08T07:34:07;100285.88;;;10.79;100.00
63903;BME280;50072;50.678;13.938;2023-10-08T07:36:44;100282.31;;;10.80;100.00
63903;BME280;50072;50.678;13.938;2023-10-08T07:39:09;100274.47;;;10.66;100.00
63903;BME280;50072;50.678;13.938;2023-10-08T07:41:51;100278.22;;;10.56;100.00
63903;BME280;50072;50.678;13.938;2023-10-08T07:44:20;100277.34;;;10.55;100.00
63903;BME280;50072;50.678;13.938;2023-10-08T07:46:49;100282.66;;;10.58;100.00
63903;BME280;50072;50.678;13.938;2023-10-08T07:49:25;100293.47;;;10.50;100.00
63903;BME280;50072;50.678;13.938;2023-10-08T07:52:00;100311.22;;;10.58;100.00
63903;BME280;50072;50.678;13.938;2023-10-08T07:54:26;100307.72;;;10.51;100.00
63903;BME280;50072;50.678;13.938;2023-10-08T07:56:57;100306.88;;;10.49;100.00
63903;BME280;50072;50.678;13.938;2023-10-08T07:59:37;100316.63;;;10.51;100.00
63903;BME280;50072;50.678;13.938;2023-10-08T08:02:05;100315.91;;;10.40;100.00
63903;BME280;50072;50.678;13.938;2023-10-08T08:04:39;100329.38;;;10.34;100.00
63903;BME280;50072;50.678;13.938;2023-10-08T08:07:09;100329.34;;;10.35;100.00
63903;BME280;50072;50.678;13.938;2023-10-08T08:09:52;100333.84;;;10.32;100.00
63903;BME280;50072;50.678;13.938;2023-10-08T08:12:19;100339.19;;;10.35;100.00
63903;BME280;50072;50.678;13.938;2023-10-08T08:14:47;100334.75;;;10.31;100.00
63903;BME280;50072;50.678;13.938;2023-10-08T08:17:14;100351.56;;;10.42;100.00
63903;BME280;50072;50.678;13.938;2023-10-08T08:19:55;100360.41;;;10.47;100.00
63903;BME280;50072;50.678;13.938;2023-10-08T08:22:55;100356.72;;;10.58;100.00
63903;BME280;50072;50.678;13.938;2023-10-08T08:29:05;100375.25;;;10.70;100.00
63903;BME280;50072;50.678;13.938;2023-10-08T08:31:57;100390.31;;;10.77;100.00
63903;BME280;50072;50.678;13.938;2023-10-08T08:35:14;100382.97;;;10.95;100.00
63903;BME280;50072;50.678;13.938;2023-10-08T08:38:18;100376.63;;;11.00;100.00
63903;BME280;50072;50.678;13.938;2023-10-08T08:40:50;100373.91;;;11.02;100.00
63903;BME280;50072;50.678;13.938;2023-10-08T08:43:17;100371.06;;;11.11;100.00
63903;BME280;50072;50.678;13.938;2023-10-08T08:46:17;100385.19;;;11.22;100.00
63903;BME280;50072;50.678;13.938;2023-10-08T08:48:52;100348.84;;;11.06;100.00
63903;BME280;50072;50.678;13.938;2023-10-08T08:51:22;100345.22;;;11.10;100.00
63903;BME280;50072;50.678;13.938;2023-10-08T08:53:49;100364.06;;;11.04;100.00
63903;BME280;50072;50.678;13.938;2023-10-08T08:56:15;100392.34;;;11.22;100.00
63903;BME280;50072;50.678;13.938;2023-10-08T08:58:41;100389.75;;;11.17;100.00
63903;BME280;50072;50.678;13.938;2023-10-08T09:01:11;100400.47;;;11.17;100.00
63903;BME280;50072;50.678;13.938;2023-10-08T09:03:39;100400.69;;;11.02;100.00
63903;BME280;50072;50.678;13.938;2023-10-08T09:06:06;100399.72;;;11.08;100.00
63903;BME280;50072;50.678;13.938;2023-10-08T09:08:36;100402.31;;;11.12;100.00
63903;BME280;50072;50.678;13.938;2023-10-08T09:11:03;100402.31;;;11.14;100.00
63903;BME280;50072;50.678;13.938;2023-10-08T09:13:34;100393.50;;;11.04;100.00
63903;BME280;50072;50.678;13.938;2023-10-08T09:16:11;100406.84;;;11.10;100.00
63903;BME280;50072;50.678;13.938;2023-10-08T09:18:38;100423.63;;;11.20;100.00
63903;BME280;50072;50.678;13.938;2023-10-08T09:21:22;100411.16;;;11.19;100.00
63903;BME280;50072;50.678;13.938;2023-10-08T09:24:05;100409.16;;;11.32;100.00
63903;BME280;50072;50.678;13.938;2023-10-08T09:26:39;100416.16;;;11.42;100.00
63903;BME280;50072;50.678;13.938;2023-10-08T09:29:11;100402.78;;;11.40;100.00
63903;BME280;50072;50.678;13.938;2023-10-08T09:31:59;100424.91;;;11.52;100.00
63903;BME280;50072;50.678;13.938;2023-10-08T09:34:40;100437.41;;;11.51;100.00
63903;BME280;50072;50.678;13.938;2023-10-08T09:37:13;100435.56;;;11.56;100.00
63903;BME280;50072;50.678;13.938;2023-10-08T09:39:40;100427.47;;;11.60;100.00
